Time;durP1;ratioP1;P1;durP2;ratioP2;P2;SDS_P1;SDS_P2;PMS_P1;PMS_P2;Temp;Humidity;BMP_temperature;BMP_pressure;BME280_temperature;BME280_humidity;BME280_pressure;Samples;Min_cycle;Max_cycle;Signal;HPM_P1;HPM_P2
2021/11/28 00:01:54;;;;;;;6.87;4.30;;;;;;;4.10;61.36;94549.66;4992336;28;20965;-70
2021/11/28 00:04:21;;;;;;;6.27;4.27;;;;;;;4.06;60.86;94563.94;4992389;28;20428;-70
2021/11/28 00:07:01;;;;;;;7.10;3.50;;;;;;;3.83;61.67;94557.03;4992392;28;20233;-70
2021/11/28 00:09:41;;;;;;;5.33;3.57;;;;;;;4.08;60.81;94556.81;5000189;28;20477;-70
2021/11/28 00:12:12;;;;;;;5.73;3.70;;;;;;;4.16;61.05;94548.16;4975166;28;20428;-70
2021/11/28 00:14:39;;;;;;;5.03;3.47;;;;;;;4.24;60.88;94544.66;4989516;28;20416;-70
2021/11/28 00:17:05;;;;;;;5.97;4.20;;;;;;;3.99;61.28;94547.50;4988738;28;20462;-69
2021/11/28 00:19:31;;;;;;;5.17;3.80;;;;;;;4.09;61.58;94548.06;5002774;28;20451;-70
2021/11/28 00:21:56;;;;;;;6.03;4.40;;;;;;;4.19;60.99;94546.97;5001355;28;20452;-70
2021/11/28 00:24:22;;;;;;;5.93;3.53;;;;;;;4.19;61.21;94552.16;4995244;28;20751;-70
2021/11/28 00:26:48;;;;;;;7.33;3.70;;;;;;;3.91;61.31;94540.59;4999672;28;20201;-71
2021/11/28 00:29:14;;;;;;;5.47;3.73;;;;;;;4.30;60.74;94533.56;4996088;28;20197;-70
2021/11/28 00:31:40;;;;;;;5.57;3.80;;;;;;;3.58;61.98;94547.84;4992777;28;20428;-69
2021/11/28 00:34:05;;;;;;;4.10;3.60;;;;;;;3.33;63.88;94548.03;4983361;28;20424;-68
2021/11/28 00:36:31;;;;;;;6.13;4.13;;;;;;;3.72;62.56;94541.13;4991777;28;20581;-69
2021/11/28 00:38:57;;;;;;;6.10;4.47;;;;;;;4.08;61.58;94546.44;4992500;28;20177;-68
2021/11/28 00:41:22;;;;;;;4.70;3.53;;;;;;;4.19;60.72;94549.56;4992683;28;20177;-68
2021/11/28 00:43:48;;;;;;;9.10;4.30;;;;;;;4.35;60.99;94556.41;4974720;28;20173;-69
2021/11/28 00:46:13;;;;;;;5.07;3.63;;;;;;;4.26;60.82;94553.09;4992432;28;20201;-71
2021/11/28 00:48:42;;;;;;;4.63;3.13;;;;;;;4.05;61.86;94564.94;4984273;28;20633;-68
2021/11/28 00:51:52;;;;;;;16.97;4.53;;;;;;;4.15;61.58;94556.91;4991640;28;20208;-68
2021/11/28 00:53:56;;;;;;;6.50;3.90;;;;;;;4.25;61.32;94551.47;4974945;28;20939;-68
2021/11/28 00:56:22;;;;;;;4.90;3.90;;;;;;;4.28;60.96;94556.31;4991094;28;20543;-68
2021/11/28 00:58:48;;;;;;;7.80;3.97;;;;;;;4.23;61.61;94548.25;4993686;28;20648;-68
2021/11/28 01:01:15;;;;;;;6.13;4.13;;;;;;;4.23;61.03;94550.84;4991752;28;20281;-68
2021/11/28 01:03:41;;;;;;;5.83;3.77;;;;;;;4.09;61.39;94550.66;4992244;28;20482;-68
2021/11/28 01:06:13;;;;;;;4.37;3.30;;;;;;;3.84;61.96;94550.88;5009993;28;20466;-68
2021/11/28 01:08:39;;;;;;;4.67;3.60;;;;;;;3.77;62.75;94555.16;4991697;28;20508;-69
2021/11/28 01:11:05;;;;;;;4.57;3.30;;;;;;;3.75;63.19;94551.09;4990996;28;20428;-69
2021/11/28 01:13:31;;;;;;;4.30;3.90;;;;;;;4.20;61.83;94549.41;4998010;28;20282;-69
2021/11/28 01:15:57;;;;;;;8.37;3.73;;;;;;;4.26;61.11;94551.28;4991405;28;20943;-68
2021/11/28 01:18:23;;;;;;;9.00;3.37;;;;;;;4.12;61.39;94557.25;4984489;28;20644;-70
2021/11/28 01:20:49;;;;;;;5.13;3.40;;;;;;;3.58;63.32;94555.63;4974463;28;20189;-67
2021/11/28 01:23:14;;;;;;;8.13;3.47;;;;;;;3.54;63.40;94558.53;4993376;28;20439;-69
2021/11/28 01:25:40;;;;;;;3.67;3.20;;;;;;;3.57;64.02;94566.94;4991669;28;20205;-68
2021/11/28 01:28:06;;;;;;;4.83;3.10;;;;;;;3.29;64.12;94567.44;4992007;28;20191;-69
2021/11/28 01:30:31;;;;;;;3.90;3.03;;;;;;;4.14;61.80;94570.84;4992541;28;20617;-68
2021/11/28 01:32:57;;;;;;;4.77;3.47;;;;;;;3.48;63.05;94567.00;4992997;28;20670;-69
2021/11/28 01:35:22;;;;;;;6.37;3.07;;;;;;;3.32;63.76;94578.28;4992924;28;20237;-69
2021/11/28 01:37:48;;;;;;;4.33;3.13;;;;;;;3.21;64.73;94576.91;4992532;28;20233;-69
2021/11/28 01:40:16;;;;;;;3.37;2.90;;;;;;;3.53;63.43;94576.84;4975226;28;20371;-69
2021/11/28 01:42:50;;;;;;;4.20;3.23;;;;;;;3.12;64.46;94588.28;4996342;28;20205;-68
2021/11/28 01:45:25;;;;;;;6.53;4.00;;;;;;;3.22;64.43;94588.84;5002660;28;20451;-69
2021/11/28 01:47:52;;;;;;;9.63;3.60;;;;;;;3.77;63.01;94591.41;5003361;28;20804;-69
2021/11/28 01:50:18;;;;;;;5.77;3.83;;;;;;;3.89;62.27;94596.97;4997918;28;20436;-68
2021/11/28 01:52:44;;;;;;;8.17;3.67;;;;;;;3.06;64.52;94599.28;4995996;28;20439;-69
2021/11/28 01:55:13;;;;;;;5.23;3.67;;;;;;;3.01;65.13;94594.63;5008005;28;20918;-67
2021/11/28 01:57:39;;;;;;;4.17;3.37;;;;;;;2.90;65.40;94590.63;5009652;28;20316;-67
2021/11/28 02:00:12;;;;;;;6.17;3.70;;;;;;;3.12;65.18;94587.44;5010969;28;20499;-68
2021/11/28 02:02:37;;;;;;;5.87;3.73;;;;;;;3.06;65.02;94594.13;5009826;28;20436;-67
2021/11/28 02:05:04;;;;;;;6.90;4.10;;;;;;;3.06;65.90;94599.28;4993487;28;20570;-67
2021/11/28 02:07:30;;;;;;;3.80;3.13;;;;;;;3.48;64.51;94590.31;4969570;28;20857;-67
2021/11/28 02:09:56;;;;;;;6.20;3.90;;;;;;;3.24;64.61;94596.44;4991315;28;20459;-67
2021/11/28 02:12:29;;;;;;;8.67;4.37;;;;;;;3.50;63.88;94588.38;4997059;28;20431;-67
2021/11/28 02:14:56;;;;;;;6.10;3.93;;;;;;;3.49;63.90;94593.72;4993640;28;20893;-69
2021/11/28 02:17:22;;;;;;;5.23;3.80;;;;;;;3.90;62.75;94585.63;4994382;28;20479;-68
2021/11/28 02:19:47;;;;;;;4.03;3.47;;;;;;;3.38;63.55;94589.75;4984541;28;20424;-67
2021/11/28 02:22:13;;;;;;;4.37;3.50;;;;;;;3.34;63.65;94591.84;4994414;28;20263;-68
2021/11/28 02:24:39;;;;;;;4.00;3.40;;;;;;;3.27;64.43;94587.56;4976727;28;20185;-68
2021/11/28 02:27:05;;;;;;;4.50;3.50;;;;;;;3.29;64.73;94585.56;4994332;28;20203;-67
2021/11/28 02:29:30;;;;;;;7.00;4.50;;;;;;;3.29;64.50;94591.56;5001788;28;20188;-67
2021/11/28 02:31:56;;;;;;;5.37;3.83;;;;;;;3.86;62.23;94586.97;4994573;28;20231;-68
2021/11/28 02:34:22;;;;;;;4.93;4.03;;;;;;;3.36;63.09;94578.75;5001916;28;20193;-68
2021/11/28 02:36:53;;;;;;;6.80;3.80;;;;;;;3.66;63.18;94584.03;4993943;28;20280;-68
2021/11/28 02:39:20;;;;;;;4.97;3.20;;;;;;;3.25;63.72;94586.91;4986059;28;20188;-68
2021/11/28 02:41:47;;;;;;;4.13;3.03;;;;;;;3.48;63.59;94585.13;4986138;28;20506;-67
2021/11/28 02:44:14;;;;;;;7.33;2.93;;;;;;;3.44;63.31;94580.47;4977482;28;20856;-68
2021/11/28 02:46:40;;;;;;;7.20;3.37;;;;;;;3.17;63.97;94577.41;4985981;28;20507;-67
2021/11/28 02:49:06;;;;;;;7.33;3.10;;;;;;;3.72;62.61;94578.16;4993658;28;20453;-68
2021/11/28 02:51:35;;;;;;;7.53;3.07;;;;;;;2.94;65.04;94583.34;4993498;28;20440;-67
2021/11/28 02:54:02;;;;;;;10.23;2.93;;;;;;;3.14;64.84;94585.50;4982281;28;20189;-67
2021/11/28 02:56:28;;;;;;;6.27;3.20;;;;;;;2.79;65.38;94583.22;4994930;28;20515;-67
2021/11/28 02:58:53;;;;;;;9.73;3.37;;;;;;;3.23;64.28;94576.72;4993458;28;20435;-69
2021/11/28 03:01:21;;;;;;;6.50;3.20;;;;;;;3.48;63.10;94581.72;5008441;28;20204;-69
2021/11/28 03:03:50;;;;;;;3.73;2.70;;;;;;;3.37;63.55;94578.56;4993252;28;20182;-68
2021/11/28 03:06:15;;;;;;;5.03;2.93;;;;;;;3.51;63.12;94573.63;4993093;28;20939;-66
2021/11/28 03:08:41;;;;;;;5.53;3.23;;;;;;;3.56;63.69;94578.28;5000825;28;20447;-70
2021/11/28 03:11:08;;;;;;;4.30;3.33;;;;;;;3.66;62.77;94565.91;4993352;28;20193;-68
2021/11/28 03:13:41;;;;;;;3.60;2.80;;;;;;;3.44;64.31;94559.78;4993206;28;20200;-67
2021/11/28 03:16:10;;;;;;;3.97;3.00;;;;;;;3.20;64.77;94567.50;4993337;28;20464;-66
2021/11/28 03:18:36;;;;;;;4.37;3.50;;;;;;;3.47;63.97;94570.59;4993348;28;20435;-66
2021/11/28 03:21:09;;;;;;;4.63;3.23;;;;;;;3.14;65.00;94575.97;4993203;28;20424;-66
2021/11/28 03:23:36;;;;;;;4.13;3.10;;;;;;;3.34;64.57;94562.56;5000881;28;20483;-67
2021/11/28 03:26:12;;;;;;;3.87;3.10;;;;;;;3.52;64.35;94573.47;4989954;28;20447;-67
2021/11/28 03:28:44;;;;;;;4.53;3.30;;;;;;;3.93;62.96;94568.91;4993068;28;20444;-66
2021/11/28 03:31:10;;;;;;;4.23;3.00;;;;;;;3.34;64.43;94565.16;4993077;28;20900;-67
2021/11/28 03:33:38;;;;;;;9.97;2.93;;;;;;;3.56;64.09;94558.38;5001364;28;20424;-65
2021/11/28 03:36:05;;;;;;;4.40;3.20;;;;;;;3.72;63.43;94562.63;4992835;28;20668;-66
2021/11/28 03:38:31;;;;;;;5.07;3.00;;;;;;;3.70;63.67;94559.41;5000781;28;20432;-65
2021/11/28 03:40:57;;;;;;;5.27;2.93;;;;;;;3.23;64.96;94556.00;4992743;28;20436;-66
2021/11/28 03:43:22;;;;;;;6.00;3.53;;;;;;;3.43;64.62;94547.81;5001031;28;20443;-68
2021/11/28 03:45:48;;;;;;;3.30;2.77;;;;;;;3.36;64.02;94548.47;4992866;28;20212;-68
2021/11/28 03:48:14;;;;;;;5.93;2.90;;;;;;;3.44;64.18;94545.03;4976196;28;20189;-67
2021/11/28 03:50:40;;;;;;;6.87;2.90;;;;;;;3.35;64.96;94543.47;4982988;28;20907;-68
2021/11/28 03:53:05;;;;;;;4.23;2.73;;;;;;;3.42;64.36;94546.97;4974927;28;20212;-66
2021/11/28 03:55:31;;;;;;;6.27;3.00;;;;;;;3.43;63.90;94551.19;4992169;28;20292;-66
2021/11/28 03:57:57;;;;;;;5.37;3.10;;;;;;;3.07;65.30;94559.50;4975043;28;20201;-67
2021/11/28 04:00:22;;;;;;;6.97;3.33;;;;;;;3.09;65.10;94551.59;4992194;28;20559;-68
2021/11/28 04:02:48;;;;;;;7.30;2.73;;;;;;;3.46;64.86;94556.03;4992655;28;20255;-67
2021/11/28 04:05:14;;;;;;;3.50;3.00;;;;;;;3.83;63.17;94558.81;4992351;28;20196;-67
2021/11/28 04:07:39;;;;;;;5.37;2.93;;;;;;;3.97;63.09;94565.00;4982842;28;20178;-67
2021/11/28 04:10:07;;;;;;;6.07;2.87;;;;;;;4.09;62.32;94558.41;4991687;28;20280;-67
2021/11/28 04:12:33;;;;;;;3.10;2.70;;;;;;;4.15;62.96;94555.13;4992028;28;20189;-66
2021/11/28 04:14:59;;;;;;;6.13;3.27;;;;;;;3.38;64.25;94550.91;4983172;28;20455;-66
2021/11/28 04:17:25;;;;;;;3.57;2.50;;;;;;;3.53;64.18;94558.72;4991852;28;20303;-66
2021/11/28 04:19:54;;;;;;;6.53;3.13;;;;;;;3.35;64.50;94556.44;4974783;28;20184;-66
2021/11/28 04:22:20;;;;;;;3.03;2.30;;;;;;;3.42;64.86;94562.50;4984097;28;20739;-67
2021/11/28 04:24:45;;;;;;;3.67;2.80;;;;;;;3.50;63.78;94557.28;4992230;28;20531;-68
2021/11/28 04:27:11;;;;;;;7.60;2.83;;;;;;;3.74;63.23;94552.91;4992538;28;20263;-65
2021/11/28 04:29:37;;;;;;;5.77;2.80;;;;;;;3.00;65.67;94550.81;4992662;28;20271;-67
2021/11/28 04:32:03;;;;;;;4.40;2.70;;;;;;;3.49;64.84;94558.28;4984157;28;20622;-68
2021/11/28 04:34:28;;;;;;;4.07;2.60;;;;;;;3.79;63.64;94553.16;4984279;28;20322;-68
2021/11/28 04:36:54;;;;;;;7.27;3.37;;;;;;;3.70;64.20;94551.63;5007271;28;20475;-67
2021/11/28 04:39:19;;;;;;;5.00;2.67;;;;;;;3.95;62.93;94551.41;5002861;28;20185;-68
2021/11/28 04:41:45;;;;;;;4.33;2.50;;;;;;;3.88;62.48;94545.34;5002443;28;20235;-66
2021/11/28 04:44:11;;;;;;;3.27;2.50;;;;;;;3.46;63.79;94548.25;5015180;28;20283;-67
2021/11/28 04:46:37;;;;;;;4.33;2.40;;;;;;;3.89;62.96;94549.53;5002159;28;20201;-67
2021/11/28 04:49:03;;;;;;;7.23;2.50;;;;;;;3.79;62.88;94552.38;4995314;28;20879;-67
2021/11/28 04:51:29;;;;;;;3.07;2.40;;;;;;;3.95;62.91;94548.81;4987315;28;20491;-67
2021/11/28 04:53:56;;;;;;;3.23;2.23;;;;;;;3.94;62.70;94545.44;4991136;28;20432;-67
2021/11/28 04:56:21;;;;;;;4.87;2.30;;;;;;;3.56;63.29;94545.44;5008280;28;20464;-67
2021/11/28 04:58:47;;;;;;;5.50;2.33;;;;;;;3.82;62.86;94537.28;4991715;28;20425;-66
2021/11/28 05:01:13;;;;;;;3.57;2.20;;;;;;;3.87;62.59;94543.72;4991798;28;20189;-67
2021/11/28 05:03:38;;;;;;;4.93;2.70;;;;;;;3.96;62.29;94553.03;4991870;28;20189;-66
2021/11/28 05:06:04;;;;;;;2.57;2.37;;;;;;;4.06;61.83;94557.97;4991751;28;20205;-67
2021/11/28 05:08:29;;;;;;;4.17;2.70;;;;;;;3.93;62.68;94556.78;4991898;28;20279;-66
2021/11/28 05:10:55;;;;;;;7.40;2.47;;;;;;;4.10;62.50;94567.81;4991953;28;20189;-67
2021/11/28 05:13:20;;;;;;;3.23;2.43;;;;;;;3.85;62.88;94551.66;4991686;28;20205;-68
2021/11/28 05:15:46;;;;;;;3.73;2.50;;;;;;;3.89;63.35;94550.34;4991374;28;20204;-68
2021/11/28 05:18:11;;;;;;;4.40;2.70;;;;;;;3.91;63.51;94555.34;4991788;28;20573;-67
2021/11/28 05:20:37;;;;;;;3.27;2.10;;;;;;;3.92;63.17;94546.56;4992211;28;20192;-66
2021/11/28 05:23:03;;;;;;;7.10;2.87;;;;;;;4.00;62.96;94542.13;5001603;28;20631;-66
2021/11/28 05:25:28;;;;;;;3.40;2.70;;;;;;;4.00;62.51;94544.72;4996639;28;20205;-67
2021/11/28 05:27:54;;;;;;;7.23;2.30;;;;;;;4.18;61.94;94545.38;4996653;28;20527;-66
2021/11/28 05:30:20;;;;;;;5.13;2.53;;;;;;;4.17;61.99;94548.94;5003698;28;20235;-67
2021/11/28 05:32:45;;;;;;;3.33;2.73;;;;;;;4.14;62.71;94547.50;4978360;28;20267;-67
2021/11/28 05:35:11;;;;;;;3.50;2.47;;;;;;;4.08;62.88;94546.44;5003559;28;20290;-66
2021/11/28 05:37:37;;;;;;;4.27;2.73;;;;;;;4.01;62.88;94555.91;5003910;28;20205;-66
2021/11/28 05:40:04;;;;;;;4.20;2.60;;;;;;;3.96;62.39;94553.03;4978706;28;20264;-66
2021/11/28 05:42:29;;;;;;;3.50;2.67;;;;;;;4.25;62.29;94554.06;4995863;28;20192;-67
2021/11/28 05:44:55;;;;;;;5.83;2.70;;;;;;;4.31;61.98;94553.34;4996764;28;20423;-67
2021/11/28 05:47:21;;;;;;;5.50;2.50;;;;;;;4.44;61.49;94556.13;4997869;28;20228;-68
2021/11/28 05:49:46;;;;;;;4.60;3.20;;;;;;;4.52;61.44;94555.22;4997186;28;20652;-68
2021/11/28 05:52:12;;;;;;;2.73;2.40;;;;;;;4.66;61.21;94558.81;4998386;28;20197;-67
2021/11/28 05:54:37;;;;;;;3.20;2.90;;;;;;;4.52;61.39;94557.03;4999918;28;20189;-67
2021/11/28 05:57:03;;;;;;;4.70;2.50;;;;;;;4.62;61.96;94562.75;4983409;28;20205;-66
2021/11/28 05:59:29;;;;;;;5.20;2.40;;;;;;;4.84;60.88;94563.63;4995382;28;20185;-66
2021/11/28 06:01:55;;;;;;;4.13;2.80;;;;;;;4.64;60.25;94565.97;4996149;28;20189;-67
2021/11/28 06:04:21;;;;;;;3.47;2.93;;;;;;;4.88;60.66;94577.81;4995760;28;20200;-66
2021/11/28 06:06:46;;;;;;;3.20;2.77;;;;;;;4.95;60.22;94577.91;4995715;28;20440;-66
2021/11/28 06:09:13;;;;;;;5.23;2.80;;;;;;;5.01;60.27;94572.00;4995407;28;20196;-68
2021/11/28 06:11:38;;;;;;;2.40;2.20;;;;;;;5.02;60.25;94577.97;4966944;28;20602;-67
2021/11/28 06:14:04;;;;;;;3.20;2.10;;;;;;;5.04;59.97;94589.78;4995360;28;20435;-67
2021/11/28 06:16:30;;;;;;;2.03;1.90;;;;;;;5.07;60.26;94586.03;4995074;28;20217;-67
2021/11/28 06:18:56;;;;;;;3.33;2.30;;;;;;;4.99;60.03;94581.75;4994871;28;20276;-67
2021/11/28 06:21:21;;;;;;;2.57;2.13;;;;;;;5.03;59.91;94585.59;5001657;28;20870;-67
2021/11/28 06:23:47;;;;;;;4.27;2.10;;;;;;;5.05;59.82;94578.41;4995816;28;20191;-67
2021/11/28 06:26:13;;;;;;;5.50;2.73;;;;;;;4.88;60.62;94577.81;4994701;28;20201;-68
2021/11/28 06:28:38;;;;;;;5.90;3.70;;;;;;;4.95;60.48;94572.72;4994691;28;20189;-67
2021/11/28 06:31:07;;;;;;;10.37;4.37;;;;;;;4.98;60.14;94572.34;4999431;28;20249;-67
2021/11/28 06:33:33;;;;;;;3.33;2.30;;;;;;;4.97;60.87;94577.75;5007408;28;20182;-67
2021/11/28 06:36:00;;;;;;;2.97;2.67;;;;;;;4.94;60.25;94578.88;4996218;28;20448;-67
2021/11/28 06:38:25;;;;;;;2.53;2.17;;;;;;;4.99;60.43;94583.53;4994041;28;20424;-66
2021/11/28 06:40:51;;;;;;;4.90;2.63;;;;;;;4.86;60.96;94579.00;4994798;28;20562;-67
2021/11/28 06:43:16;;;;;;;3.07;2.63;;;;;;;4.92;61.10;94584.28;5001743;28;20185;-67
2021/11/28 06:45:42;;;;;;;3.27;2.60;;;;;;;4.97;60.10;94581.13;5007364;28;20225;-68
2021/11/28 06:48:08;;;;;;;3.00;2.60;;;;;;;5.00;60.25;94585.16;4990087;28;20273;-68
2021/11/28 06:50:33;;;;;;;4.60;2.97;;;;;;;4.93;60.16;94579.88;4994757;28;20193;-67
2021/11/28 06:52:59;;;;;;;4.83;2.63;;;;;;;5.01;60.03;94589.34;4992406;28;20181;-66
2021/11/28 06:55:25;;;;;;;6.40;3.30;;;;;;;5.05;60.33;94588.81;5003228;28;20213;-67
2021/11/28 06:57:51;;;;;;;3.30;2.30;;;;;;;4.97;60.44;94591.50;4966546;28;20207;-66
2021/11/28 07:00:18;;;;;;;3.77;2.30;;;;;;;4.88;59.79;94588.22;5015288;28;20279;-67
2021/11/28 07:02:44;;;;;;;3.27;2.23;;;;;;;4.94;60.50;94596.25;5000313;28;20200;-66
2021/11/28 07:05:10;;;;;;;4.30;2.73;;;;;;;4.92;60.84;94599.03;5017078;28;20907;-67
2021/11/28 07:07:35;;;;;;;4.93;2.70;;;;;;;4.95;60.90;94603.06;5004773;28;20715;-66
2021/11/28 07:10:01;;;;;;;3.20;2.70;;;;;;;4.96;60.77;94605.47;4994410;28;20208;-68
2021/11/28 07:12:26;;;;;;;3.67;2.30;;;;;;;5.01;60.09;94603.16;4999407;28;20181;-67
2021/11/28 07:14:52;;;;;;;3.60;2.53;;;;;;;5.00;60.40;94611.91;5001340;28;20264;-67
2021/11/28 07:17:18;;;;;;;5.30;3.00;;;;;;;4.94;60.79;94617.03;4999189;28;20228;-67
2021/11/28 07:19:44;;;;;;;4.67;2.67;;;;;;;4.92;60.60;94612.81;5013071;28;20237;-67
2021/11/28 07:22:09;;;;;;;3.93;3.00;;;;;;;4.86;60.76;94615.34;5001455;28;20181;-68
2021/11/28 07:24:35;;;;;;;4.70;2.73;;;;;;;4.94;60.81;94615.22;4994413;28;20608;-67
2021/11/28 07:27:01;;;;;;;5.07;3.00;;;;;;;4.95;61.08;94611.66;4993835;28;20440;-67
2021/11/28 07:29:27;;;;;;;4.00;2.77;;;;;;;4.88;61.04;94613.38;4994042;28;20185;-69
2021/11/28 07:31:53;;;;;;;4.30;3.43;;;;;;;4.76;61.28;94619.00;4993276;28;20518;-69
2021/11/28 07:34:18;;;;;;;4.80;3.30;;;;;;;4.90;61.10;94614.00;5001782;28;20267;-69
2021/11/28 07:36:44;;;;;;;4.90;3.47;;;;;;;5.01;60.52;94613.53;4997530;28;20487;-70
2021/11/28 07:39:10;;;;;;;3.10;2.73;;;;;;;4.81;60.58;94608.09;5004888;28;20191;-67
2021/11/28 07:41:36;;;;;;;5.57;3.17;;;;;;;4.61;61.76;94610.41;4986346;28;20548;-68
2021/11/28 07:44:02;;;;;;;5.37;3.10;;;;;;;4.72;61.43;94604.78;4998224;28;20177;-67
2021/11/28 07:46:28;;;;;;;4.40;3.20;;;;;;;4.83;61.04;94611.31;5002201;28;20513;-68
2021/11/28 07:48:54;;;;;;;3.63;2.87;;;;;;;4.82;61.17;94614.06;5004684;28;20442;-67
2021/11/28 07:51:19;;;;;;;6.10;3.43;;;;;;;4.96;60.46;94609.88;5004524;28;20237;-68
2021/11/28 07:53:46;;;;;;;5.20;3.10;;;;;;;5.01;60.44;94612.72;5000563;28;20196;-68
2021/11/28 07:56:12;;;;;;;3.40;2.90;;;;;;;5.05;60.26;94611.38;4979758;28;20652;-67
2021/11/28 07:58:38;;;;;;;4.60;3.30;;;;;;;5.04;60.32;94618.34;4975117;28;20428;-67
2021/11/28 08:01:04;;;;;;;3.53;2.60;;;;;;;5.15;60.16;94617.09;5006324;28;20435;-67
2021/11/28 08:03:30;;;;;;;3.80;2.80;;;;;;;5.13;60.45;94618.25;4993807;28;20777;-68
2021/11/28 08:05:58;;;;;;;3.43;3.00;;;;;;;5.02;60.38;94620.34;4975689;28;20216;-68
2021/11/28 08:08:27;;;;;;;3.20;2.67;;;;;;;4.95;60.22;94624.63;5000351;28;20331;-67
2021/11/28 08:10:56;;;;;;;4.10;2.67;;;;;;;5.00;60.66;94619.72;4992060;28;20776;-69
2021/11/28 08:13:21;;;;;;;3.17;2.80;;;;;;;5.11;59.72;94617.63;5001320;28;20432;-69
2021/11/28 08:15:47;;;;;;;4.90;2.87;;;;;;;5.14;60.28;94607.69;4999242;28;20483;-69
2021/11/28 08:18:13;;;;;;;3.87;2.83;;;;;;;5.23;59.69;94616.19;4992663;28;20196;-69
2021/11/28 08:20:39;;;;;;;4.67;3.10;;;;;;;5.29;59.99;94623.25;4995134;28;20420;-70
2021/11/28 08:23:04;;;;;;;8.33;4.07;;;;;;;5.25;60.43;94624.59;4995816;28;20239;-67
2021/11/28 08:25:30;;;;;;;4.37;3.40;;;;;;;5.43;59.66;94616.41;4991839;28;20265;-69
2021/11/28 08:27:56;;;;;;;8.53;4.03;;;;;;;5.36;59.87;94623.31;4975545;28;20209;-69
2021/11/28 08:30:22;;;;;;;4.43;3.33;;;;;;;5.56;59.05;94625.31;4992068;28;20478;-69
2021/11/28 08:32:48;;;;;;;3.73;2.70;;;;;;;5.45;58.82;94624.00;4992242;28;20195;-69
2021/11/28 08:35:14;;;;;;;5.13;3.30;;;;;;;5.46;59.30;94636.00;4992007;28;20189;-70
2021/11/28 08:37:40;;;;;;;7.13;3.23;;;;;;;5.02;60.49;94633.31;4991470;28;20464;-67
2021/11/28 08:40:08;;;;;;;4.37;3.00;;;;;;;5.25;60.02;94628.97;4999400;28;20452;-69
2021/11/28 08:42:34;;;;;;;4.20;3.43;;;;;;;5.41;60.14;94640.97;4991409;28;20435;-68
2021/11/28 08:45:10;;;;;;;4.47;2.97;;;;;;;5.35;59.97;94634.69;4991851;28;20834;-68
2021/11/28 08:47:35;;;;;;;5.43;4.30;;;;;;;5.28;59.75;94645.00;4981854;28;20431;-69
2021/11/28 08:50:03;;;;;;;4.00;3.57;;;;;;;5.48;59.68;94650.41;4997567;28;20428;-69
2021/11/28 08:52:29;;;;;;;5.70;3.70;;;;;;;5.54;59.28;94648.91;4992637;28;20574;-69
2021/11/28 08:54:54;;;;;;;3.47;3.10;;;;;;;5.35;60.14;94645.88;4991825;28;20447;-69
2021/11/28 08:57:20;;;;;;;8.30;3.20;;;;;;;5.59;59.49;94648.34;4992553;28;20216;-68
2021/11/28 08:59:45;;;;;;;3.43;3.00;;;;;;;5.59;59.22;94649.13;4988384;28;20533;-69
2021/11/28 09:02:11;;;;;;;4.30;2.93;;;;;;;5.57;59.91;94658.09;4996553;28;20193;-68
2021/11/28 09:04:37;;;;;;;4.50;3.03;;;;;;;5.38;59.76;94661.09;4995748;28;20188;-67
2021/11/28 09:07:04;;;;;;;4.93;3.40;;;;;;;5.50;59.48;94658.03;4996045;28;20211;-66
2021/11/28 09:09:30;;;;;;;5.57;3.70;;;;;;;5.26;59.90;94659.97;4998368;28;20927;-69
2021/11/28 09:11:56;;;;;;;4.60;3.23;;;;;;;5.08;60.38;94660.34;4978699;28;20507;-69
2021/11/28 09:14:21;;;;;;;3.80;3.07;;;;;;;4.43;62.47;94671.19;4995783;28;20424;-69
2021/11/28 09:16:47;;;;;;;4.33;2.87;;;;;;;4.53;62.77;94670.16;5010104;28;20461;-67
2021/11/28 09:19:27;;;;;;;4.70;3.20;;;;;;;4.58;62.30;94671.25;4999352;28;20217;-68
2021/11/28 09:21:54;;;;;;;6.17;3.43;;;;;;;4.35;63.80;94665.31;5002874;28;20180;-68
2021/11/28 09:26:54;;;;;;;4.60;3.20;;;;;;;4.66;62.14;94672.13;5003782;28;20446;-69
2021/11/28 09:29:20;;;;;;;5.90;4.30;;;;;;;5.02;61.09;94666.25;4997974;28;20461;-68
2021/11/28 09:31:46;;;;;;;5.70;3.60;;;;;;;5.24;61.13;94669.72;5003572;28;20871;-69
2021/11/28 09:34:12;;;;;;;5.40;2.90;;;;;;;5.47;59.87;94667.00;5006901;28;20231;-68
2021/11/28 09:36:37;;;;;;;5.00;3.10;;;;;;;5.44;60.03;94671.75;4995609;28;20986;-68
2021/11/28 09:39:04;;;;;;;4.53;2.80;;;;;;;4.84;61.87;94676.97;4995324;28;20656;-68
2021/11/28 09:41:34;;;;;;;6.40;3.33;;;;;;;4.93;62.30;94673.31;4978251;28;20190;-69
2021/11/28 09:44:04;;;;;;;3.77;3.47;;;;;;;4.60;63.35;94684.81;4995389;28;20511;-68
2021/11/28 09:46:29;;;;;;;4.30;2.97;;;;;;;4.93;62.77;94673.31;4985185;28;20807;-68
2021/11/28 09:48:59;;;;;;;8.23;3.20;;;;;;;5.15;61.56;94670.81;4977446;28;20527;-66
2021/11/28 09:51:28;;;;;;;6.77;3.60;;;;;;;4.89;62.03;94674.66;4995434;28;20201;-68
2021/11/28 09:53:58;;;;;;;6.00;2.97;;;;;;;5.18;60.77;94660.88;4995034;28;20416;-68
2021/11/28 09:56:25;;;;;;;3.43;3.10;;;;;;;5.20;60.48;94655.47;4995015;28;21010;-69
2021/11/28 09:58:51;;;;;;;5.87;2.93;;;;;;;5.17;60.72;94661.84;4999729;28;20478;-68
2021/11/28 10:01:17;;;;;;;3.97;3.30;;;;;;;5.15;60.45;94655.25;4997601;28;20433;-68
2021/11/28 10:03:43;;;;;;;4.90;3.00;;;;;;;4.99;61.39;94657.03;4995379;28;20431;-68
2021/11/28 10:06:08;;;;;;;5.13;3.40;;;;;;;5.27;60.38;94655.56;5008943;28;20530;-67
2021/11/28 10:08:34;;;;;;;4.80;3.33;;;;;;;5.38;60.03;94661.09;4994817;28;20224;-67
2021/11/28 10:11:18;;;;;;;4.23;3.73;;;;;;;5.35;60.37;94658.88;4994259;28;20185;-68
2021/11/28 10:13:44;;;;;;;4.93;3.00;;;;;;;5.46;60.53;94656.78;4992941;28;20648;-68
2021/11/28 10:16:09;;;;;;;7.40;3.53;;;;;;;5.68;59.10;94645.44;4994506;28;20512;-68
2021/11/28 10:18:36;;;;;;;2.83;2.63;;;;;;;5.39;59.50;94643.72;4994536;28;20939;-68
2021/11/28 10:21:02;;;;;;;9.03;3.53;;;;;;;5.50;59.93;94643.25;4999764;28;20210;-68
2021/11/28 10:23:28;;;;;;;3.63;2.90;;;;;;;5.53;60.27;94636.91;4996145;28;20436;-69
2021/11/28 10:26:13;;;;;;;5.50;2.70;;;;;;;5.52;59.74;94649.06;4994581;28;20443;-70
2021/11/28 10:29:06;;;;;;;5.00;3.23;;;;;;;5.86;59.10;94633.81;4998015;28;20412;-69
2021/11/28 10:31:49;;;;;;;4.03;3.10;;;;;;;5.96;58.91;94647.31;4995362;28;20826;-67
2021/11/28 10:34:15;;;;;;;3.93;3.00;;;;;;;5.55;59.94;94640.09;4994010;28;20567;-66
2021/11/28 10:36:41;;;;;;;4.00;3.20;;;;;;;5.33;60.49;94640.06;4994153;28;20818;-68
2021/11/28 10:39:15;;;;;;;8.30;3.30;;;;;;;5.44;60.05;94643.16;4983920;28;20424;-69
2021/11/28 10:41:52;;;;;;;4.27;2.97;;;;;;;5.58;59.97;94641.53;4998584;28;20178;-69
2021/11/28 10:44:20;;;;;;;13.10;3.50;;;;;;;5.38;59.73;94642.09;4997452;28;20416;-70
2021/11/28 10:46:46;;;;;;;4.13;2.90;;;;;;;5.43;59.65;94638.97;4993825;28;20443;-70
2021/11/28 10:49:20;;;;;;;5.80;2.80;;;;;;;5.68;59.98;94635.03;4994295;28;20451;-68
2021/11/28 10:51:49;;;;;;;5.10;3.50;;;;;;;5.69;59.75;94639.25;4987645;28;20413;-68
2021/11/28 10:54:31;;;;;;;4.70;3.20;;;;;;;5.33;59.77;94642.66;4986006;28;20416;-69
2021/11/28 10:57:07;;;;;;;4.53;3.50;;;;;;;5.37;60.05;94638.72;4977175;28;20483;-70
2021/11/28 10:59:39;;;;;;;7.60;3.33;;;;;;;5.47;60.06;94637.63;4994053;28;20424;-69
2021/11/28 11:02:23;;;;;;;7.93;3.27;;;;;;;5.66;59.79;94629.25;4979632;28;20962;-69
2021/11/28 11:04:50;;;;;;;7.10;5.10;;;;;;;5.88;59.14;94636.22;4995519;28;20429;-69
2021/11/28 11:07:17;;;;;;;4.43;3.97;;;;;;;6.11;58.63;94633.47;4993937;28;20444;-68
2021/11/28 11:09:44;;;;;;;3.63;2.90;;;;;;;6.13;57.18;94626.28;4984525;28;20535;-70
2021/11/28 11:12:32;;;;;;;4.47;2.63;;;;;;;6.33;57.25;94636.03;4995511;28;20479;-67
2021/11/28 11:14:58;;;;;;;3.30;3.00;;;;;;;6.24;57.31;94633.56;4988524;28;20456;-68
2021/11/28 11:17:27;;;;;;;4.63;2.70;;;;;;;6.32;56.66;94624.84;4971279;28;20474;-68
2021/11/28 11:19:53;;;;;;;4.30;3.90;;;;;;;6.34;57.46;94629.84;4988659;28;20434;-68
2021/11/28 11:22:27;;;;;;;3.60;3.20;;;;;;;6.44;56.31;94638.09;4994733;28;20432;-68
2021/11/28 11:25:06;;;;;;;4.33;3.93;;;;;;;6.47;57.09;94635.13;5001126;28;20180;-68
2021/11/28 11:27:34;;;;;;;3.77;3.20;;;;;;;6.53;55.99;94641.38;4994405;28;20459;-67
2021/11/28 11:30:09;;;;;;;8.13;5.30;;;;;;;6.67;55.95;94631.88;4993703;28;20864;-70
2021/11/28 11:32:41;;;;;;;5.83;3.53;;;;;;;6.78;55.62;94636.56;4992776;28;20465;-66
2021/11/28 11:35:09;;;;;;;3.20;2.90;;;;;;;6.84;55.24;94633.16;5006424;28;20485;-64
2021/11/28 11:37:36;;;;;;;3.90;2.90;;;;;;;6.19;56.60;94637.72;4993323;28;20476;-63
2021/11/28 11:40:09;;;;;;;4.10;3.60;;;;;;;6.15;57.25;94634.72;4993253;28;20438;-65
2021/11/28 11:42:34;;;;;;;6.87;5.20;;;;;;;6.38;57.35;94633.69;5001473;28;20428;-64
2021/11/28 11:45:00;;;;;;;5.93;4.53;;;;;;;6.45;56.63;94631.91;4994548;28;20455;-65